createdAt,value
2019-03-25T00:01:54.213Z,13.30
2019-03-25T00:04:24.519Z,13.30
2019-03-25T00:06:54.877Z,13.20
2019-03-25T00:09:25.207Z,13.20
2019-03-25T00:11:55.521Z,13.20
2019-03-25T00:14:25.857Z,13.20
2019-03-25T00:16:56.306Z,13.20
2019-03-25T00:19:26.702Z,13.20
2019-03-25T00:21:57.279Z,13.10
2019-03-25T00:24:38.335Z,12.90
2019-03-25T00:26:59.632Z,12.90
2019-03-25T00:29:29.929Z,12.90
2019-03-25T00:32:00.335Z,12.90
2019-03-25T00:34:30.736Z,12.80
2019-03-25T00:37:01.101Z,12.90
2019-03-25T00:39:31.455Z,12.90
2019-03-25T00:42:01.782Z,12.90
2019-03-25T00:44:32.172Z,13.00
2019-03-25T00:47:02.478Z,13.00
2019-03-25T00:49:32.775Z,13.00
2019-03-25T00:52:03.086Z,13.00
2019-03-25T00:54:33.391Z,13.00
2019-03-25T00:57:03.727Z,13.00
2019-03-25T00:59:34.073Z,12.90
2019-03-25T01:02:04.400Z,12.90
2019-03-25T01:04:34.724Z,12.90
2019-03-25T01:07:05.086Z,12.90
2019-03-25T01:09:35.510Z,13.00
2019-03-25T01:12:05.922Z,13.00
2019-03-25T01:14:36.285Z,13.00
2019-03-25T01:17:06.700Z,12.90
2019-03-25T01:19:37.038Z,12.70
2019-03-25T01:22:07.333Z,12.60
2019-03-25T01:24:37.647Z,12.70
2019-03-25T01:27:07.938Z,12.80
2019-03-25T01:29:38.293Z,12.90
2019-03-25T01:32:08.714Z,12.90
2019-03-25T01:34:39.081Z,12.80
2019-03-25T01:37:09.486Z,12.80
2019-03-25T01:39:39.741Z,12.90
2019-03-25T01:42:11.409Z,12.80
2019-03-25T01:44:42.056Z,12.90
2019-03-25T01:47:12.394Z,12.80
2019-03-25T01:49:42.766Z,12.90
2019-03-25T01:52:13.115Z,12.80
2019-03-25T01:54:43.562Z,12.80
2019-03-25T01:57:13.906Z,12.60
2019-03-25T01:59:44.208Z,12.70
2019-03-25T02:02:14.521Z,12.70
2019-03-25T02:04:44.802Z,12.60
2019-03-25T02:07:15.178Z,12.40
2019-03-25T02:09:45.571Z,12.50
2019-03-25T02:12:15.953Z,12.40
2019-03-25T02:14:46.320Z,12.50
2019-03-25T02:17:16.585Z,12.40
2019-03-25T02:19:46.977Z,12.30
2019-03-25T02:22:17.364Z,12.20
2019-03-25T02:24:47.687Z,12.10
2019-03-25T02:27:18.094Z,12.20
2019-03-25T02:29:48.410Z,12.40
2019-03-25T02:32:18.750Z,12.40
2019-03-25T02:34:49.079Z,12.30
2019-03-25T02:37:19.519Z,12.40
2019-03-25T02:39:49.929Z,12.40
2019-03-25T02:42:20.303Z,12.40
2019-03-25T02:44:50.717Z,12.40
2019-03-25T02:47:21.043Z,12.30
2019-03-25T02:49:51.415Z,12.30
2019-03-25T02:52:21.854Z,12.30
2019-03-25T02:54:52.686Z,12.30
2019-03-25T02:57:23.105Z,12.40
2019-03-25T02:59:53.439Z,12.40
2019-03-25T03:02:23.979Z,12.40
2019-03-25T03:04:54.342Z,12.40
2019-03-25T03:07:24.679Z,12.20
2019-03-25T03:09:55.016Z,12.20
2019-03-25T03:12:25.339Z,12.10
2019-03-25T03:14:55.796Z,12.00
2019-03-25T03:17:26.152Z,11.70
2019-03-25T03:19:56.461Z,11.60
2019-03-25T03:22:26.787Z,11.60
2019-03-25T03:24:57.263Z,11.70
2019-03-25T03:27:29.924Z,11.50
2019-03-25T03:29:59.776Z,10.80
2019-03-25T03:32:30.213Z,10.60
2019-03-25T03:35:01.035Z,10.40
2019-03-25T03:37:31.633Z,10.40
2019-03-25T03:40:02.003Z,10.70
2019-03-25T03:42:32.435Z,11.00
2019-03-25T03:45:02.831Z,11.20
2019-03-25T03:47:33.133Z,11.00
2019-03-25T03:50:03.530Z,10.60
2019-03-25T03:52:34.885Z,10.00
2019-03-25T03:55:05.524Z,9.70
2019-03-25T03:57:36.187Z,9.50
2019-03-25T04:00:07.360Z,9.50
2019-03-25T04:02:37.727Z,9.60
2019-03-25T04:05:08.043Z,9.50
2019-03-25T04:07:38.418Z,9.60
2019-03-25T04:10:09.232Z,9.70
2019-03-25T04:12:39.529Z,10.00
2019-03-25T04:15:11.733Z,10.20
2019-03-25T04:17:42.134Z,10.40
2019-03-25T04:20:12.592Z,10.40
2019-03-25T04:22:42.962Z,10.50
2019-03-25T04:25:13.445Z,10.60
2019-03-25T04:27:43.827Z,10.70
2019-03-25T04:30:14.343Z,10.70
2019-03-25T04:32:44.688Z,10.70
2019-03-25T04:35:15.078Z,10.80
2019-03-25T04:37:45.505Z,10.80
2019-03-25T04:40:16.512Z,10.70
2019-03-25T04:42:46.911Z,10.70
2019-03-25T04:45:17.505Z,10.80
2019-03-25T04:47:47.951Z,10.70
2019-03-25T04:50:18.311Z,10.80
2019-03-25T04:52:48.824Z,10.80
2019-03-25T04:55:19.221Z,10.90
2019-03-25T04:57:49.662Z,10.90
2019-03-25T05:00:33.658Z,11.00
2019-03-25T05:03:04.062Z,11.10
2019-03-25T05:05:36.046Z,11.10
2019-03-25T05:08:06.561Z,10.70
2019-03-25T05:10:37.027Z,10.20
2019-03-25T05:13:07.418Z,10.00
2019-03-25T05:15:37.887Z,9.60
2019-03-25T05:18:08.234Z,9.50
2019-03-25T05:20:38.605Z,9.40
2019-03-25T05:23:08.908Z,9.40
2019-03-25T05:25:39.273Z,9.50
2019-03-25T05:28:09.565Z,9.50
2019-03-25T05:30:40.015Z,9.50
2019-03-25T05:33:10.391Z,9.50
2019-03-25T05:35:40.710Z,9.50
2019-03-25T05:38:11.195Z,9.20
2019-03-25T05:40:41.552Z,9.30
2019-03-25T05:43:11.958Z,9.50
2019-03-25T05:45:42.216Z,9.50
2019-03-25T05:48:12.618Z,9.60
2019-03-25T05:50:42.993Z,9.70
2019-03-25T05:53:13.385Z,9.80
2019-03-25T05:55:43.739Z,9.90
2019-03-25T05:58:14.060Z,10.00
2019-03-25T06:00:44.620Z,10.20
2019-03-25T06:03:14.978Z,10.40
2019-03-25T06:05:45.378Z,10.50
2019-03-25T06:08:15.753Z,10.70
2019-03-25T06:10:46.077Z,10.90
2019-03-25T06:13:16.463Z,11.00
2019-03-25T06:15:46.786Z,11.10
2019-03-25T06:18:17.199Z,11.20
2019-03-25T06:20:47.512Z,11.30
2019-03-25T06:23:17.891Z,11.40
2019-03-25T06:25:48.356Z,11.40
2019-03-25T06:28:18.690Z,11.60
2019-03-25T06:30:49.103Z,11.60
2019-03-25T06:33:19.434Z,11.70
2019-03-25T06:35:49.858Z,11.90
2019-03-25T06:38:20.290Z,11.90
2019-03-25T06:40:50.642Z,11.90
2019-03-25T06:43:21.037Z,11.80
2019-03-25T06:45:51.401Z,11.60
2019-03-25T06:48:21.710Z,11.80
2019-03-25T06:50:52.197Z,12.00
2019-03-25T06:53:22.707Z,12.10
2019-03-25T06:55:53.062Z,12.20
2019-03-25T06:58:23.415Z,12.30
2019-03-25T07:00:53.840Z,12.40
2019-03-25T07:03:24.243Z,12.50
2019-03-25T07:05:54.702Z,12.50
2019-03-25T07:08:25.042Z,12.50
2019-03-25T07:10:55.537Z,12.60
2019-03-25T07:13:26.393Z,12.80
2019-03-25T07:15:56.738Z,12.90
2019-03-25T07:18:27.154Z,13.10
2019-03-25T07:20:57.512Z,13.20
2019-03-25T07:23:27.812Z,13.30
2019-03-25T07:25:58.109Z,13.50
2019-03-25T07:28:28.477Z,13.60
2019-03-25T07:30:58.910Z,13.40
2019-03-25T07:33:29.187Z,13.60
2019-03-25T07:35:59.517Z,13.70
2019-03-25T07:38:29.843Z,13.60
2019-03-25T07:41:00.201Z,13.70
2019-03-25T07:43:30.554Z,13.80
2019-03-25T07:46:00.954Z,13.90
2019-03-25T07:48:31.273Z,14.00
2019-03-25T07:51:01.991Z,14.10
2019-03-25T07:53:32.382Z,14.20
2019-03-25T07:56:02.697Z,14.30
2019-03-25T07:58:33.092Z,14.40
2019-03-25T08:01:03.475Z,14.50
2019-03-25T08:03:33.979Z,14.50
2019-03-25T08:06:04.328Z,14.50
2019-03-25T08:08:34.673Z,14.50
2019-03-25T08:11:05.107Z,14.70
2019-03-25T08:13:35.461Z,14.50
2019-03-25T08:16:05.763Z,14.60
2019-03-25T08:18:36.129Z,14.60
2019-03-25T08:21:06.467Z,14.80
2019-03-25T08:23:36.910Z,14.80
2019-03-25T08:26:07.262Z,15.00
2019-03-25T08:28:37.630Z,15.10
2019-03-25T08:31:07.940Z,15.30
2019-03-25T08:33:38.247Z,15.20
2019-03-25T08:36:08.587Z,15.30
2019-03-25T08:38:39.107Z,15.40
2019-03-25T08:41:09.442Z,15.50
2019-03-25T08:43:39.853Z,15.50
2019-03-25T08:46:10.186Z,15.60
2019-03-25T08:48:40.491Z,15.70
2019-03-25T08:51:10.872Z,15.80
2019-03-25T08:53:41.205Z,15.90
2019-03-25T08:56:11.582Z,16.00
2019-03-25T08:58:41.935Z,16.10
2019-03-25T09:01:12.382Z,16.10
2019-03-25T09:03:42.747Z,16.10
2019-03-25T09:06:13.049Z,16.20
2019-03-25T09:08:43.327Z,16.20
2019-03-25T09:11:13.778Z,16.20
2019-03-25T09:13:44.129Z,16.40
2019-03-25T09:16:14.601Z,16.40
2019-03-25T09:18:44.879Z,16.50
2019-03-25T09:21:15.335Z,16.60
2019-03-25T09:23:45.879Z,16.60
2019-03-25T09:26:16.342Z,16.60
2019-03-25T09:28:46.752Z,16.70
2019-03-25T09:31:18.673Z,16.90
2019-03-25T09:33:50.107Z,16.90
2019-03-25T09:36:39.079Z,16.90
2019-03-25T09:39:09.647Z,17.00
2019-03-25T09:41:40.022Z,17.10
2019-03-25T09:44:10.426Z,17.00
2019-03-25T09:46:40.687Z,16.90
2019-03-25T09:49:11.049Z,16.90
2019-03-25T09:51:41.696Z,17.00
2019-03-25T09:54:12.033Z,17.20
2019-03-25T09:56:42.433Z,17.30
2019-03-25T09:59:12.850Z,17.40
2019-03-25T10:01:43.231Z,17.50
2019-03-25T10:04:13.560Z,17.40
2019-03-25T10:06:44.070Z,17.40
2019-03-25T10:09:14.394Z,17.50
2019-03-25T10:11:44.762Z,17.50
2019-03-25T10:14:15.064Z,17.60
2019-03-25T10:16:45.486Z,17.70
2019-03-25T10:19:18.371Z,17.80
2019-03-25T10:22:24.152Z,17.80
2019-03-25T10:24:54.527Z,17.80
2019-03-25T10:27:24.818Z,17.90
2019-03-25T10:29:55.209Z,17.90
2019-03-25T10:32:25.565Z,17.90
2019-03-25T10:34:55.907Z,17.80
2019-03-25T10:37:26.322Z,17.90
2019-03-25T10:39:56.710Z,17.90
2019-03-25T10:42:27.197Z,18.00
2019-03-25T10:44:57.547Z,18.00
2019-03-25T10:47:27.912Z,18.00
2019-03-25T10:49:58.194Z,18.00
2019-03-25T10:52:28.492Z,17.90
2019-03-25T10:57:29.275Z,17.80
2019-03-25T10:59:59.637Z,17.80
2019-03-25T11:02:29.880Z,17.80
2019-03-25T11:05:01.433Z,17.90
2019-03-25T11:07:31.858Z,18.00
2019-03-25T11:10:02.219Z,18.00
2019-03-25T11:12:32.602Z,18.20
2019-03-25T11:15:02.904Z,18.30
2019-03-25T11:17:33.361Z,18.30
2019-03-25T11:20:03.670Z,18.30
2019-03-25T11:22:34.077Z,18.50
2019-03-25T11:25:05.363Z,18.40
2019-03-25T11:27:35.808Z,18.40
2019-03-25T11:30:06.868Z,18.40
2019-03-25T11:32:37.246Z,18.40
2019-03-25T11:35:07.974Z,18.30
2019-03-25T11:37:41.649Z,18.50
2019-03-25T11:40:13.287Z,18.50
2019-03-25T11:42:43.670Z,18.70
2019-03-25T11:45:14.427Z,18.80
2019-03-25T11:47:45.768Z,19.00
2019-03-25T11:50:16.544Z,19.00
2019-03-25T11:52:46.881Z,18.90
2019-03-25T11:55:17.861Z,18.90
2019-03-25T11:57:48.262Z,18.70
2019-03-25T12:00:18.886Z,18.70
2019-03-25T12:02:49.139Z,18.80
2019-03-25T12:05:19.589Z,18.70
2019-03-25T12:07:49.970Z,18.60
2019-03-25T12:10:20.267Z,18.70
2019-03-25T12:12:50.714Z,18.90
2019-03-25T12:15:21.094Z,19.00
2019-03-25T12:17:51.457Z,18.90
2019-03-25T12:20:21.975Z,18.90
2019-03-25T12:22:52.252Z,18.90
2019-03-25T12:25:22.586Z,19.00
2019-03-25T12:27:53.047Z,19.00
2019-03-25T12:30:23.460Z,19.10
2019-03-25T12:33:03.526Z,19.10
2019-03-25T12:35:26.318Z,19.10
2019-03-25T12:37:56.773Z,19.00
2019-03-25T12:40:27.105Z,18.90
2019-03-25T12:42:57.408Z,18.80
2019-03-25T12:45:28.534Z,18.90
2019-03-25T12:47:59.033Z,19.00
2019-03-25T12:50:29.346Z,19.10
2019-03-25T12:52:59.741Z,19.10
2019-03-25T12:55:30.282Z,19.10
2019-03-25T12:58:00.697Z,19.20
2019-03-25T13:00:38.903Z,19.10
2019-03-25T13:03:09.404Z,19.10
2019-03-25T13:05:40.290Z,19.20
2019-03-25T13:08:10.734Z,19.10
2019-03-25T13:10:41.227Z,19.10
2019-03-25T13:13:11.603Z,19.00
2019-03-25T13:15:42.202Z,18.90
2019-03-25T13:18:12.678Z,18.70
2019-03-25T13:20:43.046Z,18.60
2019-03-25T13:23:13.370Z,18.60
2019-03-25T13:25:43.694Z,18.60
2019-03-25T13:28:14.003Z,18.60
2019-03-25T13:30:44.398Z,18.40
2019-03-25T13:33:14.766Z,18.50
2019-03-25T13:35:45.154Z,18.40
2019-03-25T13:38:15.633Z,18.30
2019-03-25T13:40:46.043Z,18.30
2019-03-25T13:43:16.400Z,18.30
2019-03-25T13:45:46.850Z,18.40
2019-03-25T13:48:17.240Z,18.20
2019-03-25T13:50:47.547Z,18.10
2019-03-25T13:53:17.930Z,18.10
2019-03-25T13:55:48.313Z,18.20
2019-03-25T13:58:18.638Z,18.10
2019-03-25T14:00:49.032Z,18.20
2019-03-25T14:03:19.961Z,18.20
2019-03-25T14:05:50.317Z,18.10
2019-03-25T14:08:20.690Z,17.90
2019-03-25T14:10:51.065Z,18.00
2019-03-25T14:13:21.509Z,18.10
2019-03-25T14:15:51.832Z,18.10
2019-03-25T14:18:22.161Z,18.10
2019-03-25T14:20:52.430Z,18.10
2019-03-25T14:23:22.822Z,18.20
2019-03-25T14:25:53.225Z,18.20
2019-03-25T14:28:23.559Z,18.10
2019-03-25T14:30:53.858Z,18.20
2019-03-25T14:33:24.178Z,18.10
2019-03-25T14:35:54.507Z,18.00
2019-03-25T14:38:24.842Z,18.10
2019-03-25T14:40:55.210Z,18.20
2019-03-25T14:43:25.605Z,18.20
2019-03-25T14:45:55.866Z,18.10
2019-03-25T14:48:26.142Z,17.90
2019-03-25T14:50:56.534Z,17.80
2019-03-25T14:53:26.910Z,17.70
2019-03-25T14:55:57.317Z,17.60
2019-03-25T14:58:27.652Z,17.60
2019-03-25T15:00:57.991Z,17.70
2019-03-25T15:03:28.315Z,17.80
2019-03-25T15:05:58.619Z,17.80
2019-03-25T15:08:28.943Z,17.70
2019-03-25T15:10:59.309Z,17.60
2019-03-25T15:13:29.634Z,17.60
2019-03-25T15:16:00.156Z,17.60
2019-03-25T15:18:30.681Z,17.50
2019-03-25T15:21:01.011Z,17.60
2019-03-25T15:23:31.463Z,17.60
2019-03-25T15:26:01.794Z,17.50
2019-03-25T15:28:32.065Z,17.20
2019-03-25T15:31:02.505Z,17.40
2019-03-25T15:33:32.764Z,17.30
2019-03-25T15:36:03.110Z,17.20
2019-03-25T15:38:33.490Z,17.20
2019-03-25T15:41:03.822Z,17.20
2019-03-25T15:43:34.147Z,17.10
2019-03-25T15:46:07.703Z,17.00
2019-03-25T15:48:38.101Z,16.90
2019-03-25T15:51:08.421Z,16.80
2019-03-25T15:53:38.786Z,16.80
2019-03-25T15:56:09.216Z,16.80
2019-03-25T15:58:39.543Z,16.80
2019-03-25T16:01:09.886Z,16.80
2019-03-25T16:03:43.022Z,16.80
2019-03-25T16:06:14.572Z,16.90
2019-03-25T16:08:44.958Z,16.80
2019-03-25T16:11:15.386Z,16.70
2019-03-25T16:13:48.483Z,16.70
2019-03-25T16:16:18.897Z,16.60
2019-03-25T16:18:49.238Z,16.50
2019-03-25T16:21:19.634Z,16.50
2019-03-25T16:23:50.002Z,16.40
2019-03-25T16:26:20.388Z,16.50
2019-03-25T16:28:50.749Z,16.40
2019-03-25T16:31:21.092Z,16.20
2019-03-25T16:33:51.454Z,16.00
2019-03-25T16:36:21.868Z,15.90
2019-03-25T16:39:10.937Z,15.90
2019-03-25T16:41:41.361Z,16.10
2019-03-25T16:44:11.718Z,16.00
2019-03-25T16:46:42.135Z,16.00
2019-03-25T16:49:12.515Z,15.90
2019-03-25T16:51:42.932Z,15.80
2019-03-25T16:54:13.246Z,15.80
2019-03-25T16:56:43.571Z,15.80
2019-03-25T16:59:14.046Z,15.80
2019-03-25T17:01:44.505Z,15.80
2019-03-25T17:04:14.854Z,15.80
2019-03-25T17:06:45.260Z,15.70
2019-03-25T17:09:15.710Z,15.60
2019-03-25T17:11:46.058Z,15.60
2019-03-25T17:14:16.442Z,15.50
2019-03-25T17:16:46.747Z,15.40
2019-03-25T17:19:17.122Z,15.40
2019-03-25T17:21:57.415Z,15.30
2019-03-25T17:24:19.452Z,15.20
2019-03-25T17:26:49.847Z,15.20
2019-03-25T17:29:20.149Z,15.20
2019-03-25T17:31:52.938Z,15.10
2019-03-25T17:34:23.355Z,15.10
2019-03-25T17:36:53.791Z,15.10
2019-03-25T17:39:24.617Z,15.00
2019-03-25T17:41:55.158Z,15.10
2019-03-25T17:44:25.490Z,15.10
2019-03-25T17:46:55.870Z,14.90
2019-03-25T17:49:26.208Z,14.90
2019-03-25T17:51:56.560Z,14.80
2019-03-25T17:54:26.934Z,14.80
2019-03-25T17:56:57.239Z,14.70
2019-03-25T17:59:27.734Z,14.70
2019-03-25T18:01:58.099Z,14.70
2019-03-25T18:04:28.482Z,14.70
2019-03-25T18:06:58.750Z,14.80
2019-03-25T18:09:29.197Z,14.80
2019-03-25T18:11:59.484Z,14.70
2019-03-25T18:14:29.943Z,14.20
2019-03-25T18:17:00.345Z,14.00
2019-03-25T18:19:30.712Z,13.80
2019-03-25T18:22:01.249Z,13.80
2019-03-25T18:24:31.594Z,13.80
2019-03-25T18:27:02.433Z,13.90
2019-03-25T18:29:32.884Z,14.00
2019-03-25T18:32:03.266Z,14.10
2019-03-25T18:34:33.630Z,14.10
2019-03-25T18:37:04.049Z,14.10
2019-03-25T18:39:34.401Z,14.20
2019-03-25T18:42:04.842Z,14.30
2019-03-25T18:44:35.785Z,14.30
2019-03-25T18:47:06.110Z,14.40
2019-03-25T18:49:36.461Z,14.40
2019-03-25T18:52:06.984Z,14.50
2019-03-25T18:54:37.364Z,14.50
2019-03-25T18:57:07.717Z,14.50
2019-03-25T18:59:38.146Z,14.30
2019-03-25T19:02:08.545Z,14.20
2019-03-25T19:04:39.016Z,14.10
2019-03-25T19:07:09.462Z,14.10
2019-03-25T19:09:39.826Z,14.00
2019-03-25T19:12:10.145Z,13.80
2019-03-25T19:14:40.477Z,13.70
2019-03-25T19:17:10.901Z,13.50
2019-03-25T19:19:41.262Z,13.40
2019-03-25T19:22:12.928Z,13.30
2019-03-25T19:24:43.505Z,13.20
2019-03-25T19:27:13.790Z,13.10
2019-03-25T19:29:44.304Z,13.00
2019-03-25T19:32:14.812Z,13.00
2019-03-25T19:34:45.253Z,12.80
2019-03-25T19:37:15.773Z,12.60
2019-03-25T19:39:46.075Z,12.40
2019-03-25T19:42:16.457Z,12.10
2019-03-25T19:44:46.802Z,11.80
2019-03-25T19:47:17.141Z,11.70
2019-03-25T19:49:47.470Z,11.40
2019-03-25T19:52:17.878Z,11.30
2019-03-25T19:54:48.221Z,11.10
2019-03-25T19:57:18.633Z,11.00
2019-03-25T19:59:49.116Z,10.90
2019-03-25T20:02:19.682Z,10.80
2019-03-25T20:04:50.240Z,10.60
2019-03-25T20:07:20.583Z,10.50
2019-03-25T20:09:51.020Z,10.50
2019-03-25T20:12:21.348Z,10.40
2019-03-25T20:14:51.660Z,10.30
2019-03-25T20:17:22.139Z,10.30
2019-03-25T20:19:52.537Z,10.40
2019-03-25T20:22:23.110Z,10.40
2019-03-25T20:24:53.518Z,10.40
2019-03-25T20:27:23.971Z,10.40
2019-03-25T20:29:54.437Z,10.40
2019-03-25T20:32:31.545Z,10.30
2019-03-25T20:34:56.703Z,10.00
2019-03-25T20:37:27.084Z,10.00
2019-03-25T20:39:58.087Z,9.90
2019-03-25T20:42:28.457Z,9.80
2019-03-25T20:44:58.810Z,9.80
2019-03-25T20:47:29.098Z,10.00
2019-03-25T20:49:59.559Z,10.10
2019-03-25T20:52:29.925Z,10.10
2019-03-25T20:55:00.475Z,10.10
2019-03-25T20:57:30.272Z,10.10
2019-03-25T21:00:00.782Z,10.10
2019-03-25T21:02:44.203Z,10.00
2019-03-25T21:05:03.217Z,9.90
2019-03-25T21:07:33.668Z,9.80
2019-03-25T21:10:04.012Z,9.80
2019-03-25T21:12:34.374Z,9.80
2019-03-25T21:15:04.999Z,9.70
2019-03-25T21:17:35.457Z,9.70
2019-03-25T21:20:08.033Z,9.60
2019-03-25T21:22:38.408Z,9.70
2019-03-25T21:25:09.298Z,9.70
2019-03-25T21:27:39.573Z,9.70
2019-03-25T21:30:10.025Z,9.60
2019-03-25T21:32:40.398Z,9.70
2019-03-25T21:35:10.918Z,9.60
2019-03-25T21:37:41.330Z,9.60
2019-03-25T21:40:12.055Z,9.50
2019-03-25T21:42:42.391Z,9.40
2019-03-25T21:45:12.912Z,9.30
2019-03-25T21:47:43.300Z,9.10
2019-03-25T21:50:13.934Z,9.00
2019-03-25T21:52:44.333Z,9.00
2019-03-25T21:55:14.676Z,9.00
2019-03-25T21:57:45.086Z,9.00
2019-03-25T22:00:15.792Z,8.90
2019-03-25T22:02:46.126Z,8.80
2019-03-25T22:05:16.538Z,8.70
2019-03-25T22:07:46.823Z,8.60
2019-03-25T22:10:17.320Z,8.50
2019-03-25T22:12:47.624Z,8.50
2019-03-25T22:15:18.073Z,8.50
2019-03-25T22:17:48.449Z,8.50
2019-03-25T22:20:18.938Z,8.30
2019-03-25T22:22:49.306Z,8.30
2019-03-25T22:25:19.758Z,8.40
2019-03-25T22:27:50.145Z,8.30
2019-03-25T22:30:20.488Z,8.30
2019-03-25T22:32:50.839Z,8.20
2019-03-25T22:35:21.158Z,8.20
2019-03-25T22:37:51.542Z,8.20
2019-03-25T22:40:21.835Z,8.20
2019-03-25T22:42:52.244Z,8.20
2019-03-25T22:45:30.435Z,8.20
2019-03-25T22:48:00.917Z,8.20
2019-03-25T22:50:32.593Z,8.10
2019-03-25T22:53:02.946Z,8.10
2019-03-25T22:55:33.420Z,8.00
2019-03-25T22:58:03.770Z,8.10
2019-03-25T23:00:44.502Z,8.10
2019-03-25T23:03:15.735Z,8.10
2019-03-25T23:05:46.077Z,8.00
2019-03-25T23:08:16.486Z,7.90
2019-03-25T23:10:46.853Z,8.00
2019-03-25T23:13:17.194Z,8.00
2019-03-25T23:15:47.553Z,8.00
2019-03-25T23:18:17.823Z,8.00
2019-03-25T23:20:48.135Z,8.00
2019-03-25T23:23:18.916Z,7.90
2019-03-25T23:25:49.315Z,7.90
2019-03-25T23:28:19.613Z,7.80
2019-03-25T23:30:49.914Z,7.70
2019-03-25T23:33:20.366Z,7.70
2019-03-25T23:35:50.645Z,7.80
2019-03-25T23:38:20.947Z,7.80
2019-03-25T23:40:51.304Z,7.70
2019-03-25T23:43:21.650Z,7.70
2019-03-25T23:45:52.016Z,7.70
2019-03-25T23:48:22.377Z,7.70
2019-03-25T23:50:52.797Z,7.80
2019-03-25T23:53:23.146Z,7.80
2019-03-25T23:55:53.558Z,7.90
2019-03-25T23:58:23.986Z,8.00
